juin
06

GRAND PRIX DE FRANCE DE MOTOCROSS À ERNÉE : LA FRANCE DEVANT..!

youthstreamfrancegpbanner09

MX1 – Free Practice Classification
Pos Nr Rider Nat. Fed. Bike Bestlaptime in lap Diff. First Diff. Prev. Tot. Laps Speed

1 101 Pichon, Mickael FRA FFM Honda 1:46.263 11 0:00.000 0:00.000 12 52.85
2 20 Aranda, Gregory FRA FFM Kawasaki 1:47.240 13 0:00.977 0:00.977 14 52.369

3 8 Leok, Tanel EST EMF Yamaha 1:47.955 10 0:01.692 0:00.715 15 52.022
4 25 Desalle, Clement BEL FMB Honda 1:48.419 14 0:02.156 0:00.464 14 51.799
5 222 Cairoli, Antonio ITA FMI Yamaha 1:48.451 9 0:02.188 0:00.032 13 51.784
6 98 Richier, Florent FRA FFM Kawasaki 1:48.494 13 0:02.231 0:00.043 13 51.763
7 19 Philippaerts, David ITA FMI Yamaha 1:48.726 12 0:02.463 0:00.232 13 51.653
8 9 de Dycker, Ken BEL FMB Suzuki 1:48.916 10 0:02.653 0:00.190 14 51.563
9 12 Vuillemin, David FRA FFM Kawasaki 1:49.062 10 0:02.799 0:00.146 11 51.494
10 5 Nagl, Maximilian GER DMSB KTM 1:49.085 11 0:02.822 0:00.023 12 51.483
11 15 Bill, Julien SUI FMS Aprilia 1:49.255 11 0:02.992 0:00.170 12 51.403
12 111 Leok, Aigar EST EMF TM 1:49.430 12 0:03.167 0:00.175 12 51.32
13 6 Coppins, Joshua NZL MNZ Yamaha 1:49.809 14 0:03.546 0:00.379 14 51.143
14 17 Swanepoel, Gareth RSA MSA Kawasaki 1:49.840 14 0:03.577 0:00.031 14 51.129
15 45 Leonce, Loic FRA FFM Aprilia 1:49.889 5 0:03.626 0:00.049 14 51.106
16 37 Krestinov, Gert EST EMF KTM 1:50.480 15 0:04.217 0:00.591 17 50.833
17 24 Church, Tom GBR ACU CCM 1:50.578 11 0:04.315 0:00.098 12 50.788
18 46 Dougan, Jason GBR ACU CCM 1:50.728 13 0:04.465 0:00.150 13 50.719
19 211 Mackenzie, Billy GBR ACU Honda 1:51.108 5 0:04.845 0:00.380 8 50.545
20 32 Priem, Manuel BEL FMB Aprilia 1:51.635 10 0:05.372 0:00.527 12 50.307
21 77 Terreblanche, Shannon RSA MSA Kawasaki 1:51.705 9 0:05.442 0:00.070 14 50.275
22 115 Campano, Carlos ESP RFME Yamaha 1:51.730 13 0:05.467 0:00.025 13 50.264
23 56 van Vijfeijken, Rob NED KNMV Yamaha 1:51.872 10 0:05.609 0:00.142 13 50.2
24 121 Mackenzie, Bryan GBR ACU Honda 1:52.098 9 0:05.835 0:00.226 14 50.099
25 74 Steinbergs, Ivo LAT LAMSF Honda 1:52.461 9 0:06.198 0:00.363 12 49.937
26 41 Beaudouin, Raphael FRA FFM Honda 1:52.737 5 0:06.474 0:00.276 12 49.815
27 39 Sallefranque, Josse FRA FFM Honda 1:53.402 9 0:07.139 0:00.665 9 49.523
28 23 Kempelis, Filips LAT LAMSF Honda 1:56.564 9 0:10.301 0:03.162 13 48.18

MX1 – Pre-Qualifying Practice Classification
Pos Nr Rider Nat. Fed. Bike Bestlaptime in lap Diff. First Diff. Prev. Tot. Laps Speed
1 101 Pichon, Mickael FRA FFM Honda 1:47.588 6 0:00.000 0:00.000 11 52.199

2 5 Nagl, Maximilian GER DMSB KTM 1:47.642 6 0:00.054 0:00.054 10 52.173
3 222 Cairoli, Antonio ITA FMI Yamaha 1:47.656 10 0:00.068 0:00.014 14 52.166
4 20 Aranda, Gregory FRA FFM Kawasaki 1:47.710 9 0:00.122 0:00.054 14 52.14
5 8 Leok, Tanel EST EMF Yamaha 1:48.126 12 0:00.538 0:00.416 15 51.939
6 25 Desalle, Clement BEL FMB Honda 1:48.219 7 0:00.631 0:00.093 11 51.895
7 9 de Dycker, Ken BEL FMB Suzuki 1:48.527 4 0:00.939 0:00.308 12 51.747
8 6 Coppins, Joshua NZL MNZ Yamaha 1:48.597 9 0:01.009 0:00.070 14 51.714
9 17 Swanepoel, Gareth RSA MSA Kawasaki 1:49.357 9 0:01.769 0:00.760 13 51.355
10 98 Richier, Florent FRA FFM Kawasaki 1:49.386 15 0:01.798 0:00.029 15 51.341
11 19 Philippaerts, David ITA FMI Yamaha 1:49.448 8 0:01.860 0:00.062 13 51.312
12 211 Mackenzie, Billy GBR ACU Honda 1:49.769 4 0:02.181 0:00.321 7 51.162
13 45 Leonce, Loic FRA FFM Aprilia 1:49.892 8 0:02.304 0:00.123 12 51.105
14 15 Bill, Julien SUI FMS Aprilia 1:50.137 8 0:02.549 0:00.245 13 50.991
15 12 Vuillemin, David FRA FFM Kawasaki 1:50.272 9 0:02.684 0:00.135 12 50.929
16 32 Priem, Manuel BEL FMB Aprilia 1:50.380 7 0:02.792 0:00.108 14 50.879
17 46 Dougan, Jason GBR ACU CCM 1:50.562 6 0:02.974 0:00.182 14 50.795
18 24 Church, Tom GBR ACU CCM 1:50.771 4 0:03.183 0:00.209 12 50.699
19 111 Leok, Aigar EST EMF TM 1:50.861 9 0:03.273 0:00.090 12 50.658
20 115 Campano, Carlos ESP RFME Yamaha 1:51.421 4 0:03.833 0:00.560 15 50.403
21 37 Krestinov, Gert EST EMF KTM 1:51.469 11 0:03.881 0:00.048 14 50.382
22 56 van Vijfeijken, Rob NED KNMV Yamaha 1:51.900 12 0:04.312 0:00.431 12 50.188
23 77 Terreblanche, Shannon RSA MSA Kawasaki 1:52.044 12 0:04.456 0:00.144 13 50.123
24 121 Mackenzie, Bryan GBR ACU Honda 1:52.159 4 0:04.571 0:00.115 14 50.072
25 74 Steinbergs, Ivo LAT LAMSF Honda 1:52.507 6 0:04.919 0:00.348 11 49.917
26 39 Sallefranque, Josse FRA FFM Honda 1:52.637 6 0:05.049 0:00.130 8 49.859
27 41 Beaudouin, Raphael FRA FFM Honda 1:53.580 10 0:05.992 0:00.943 12 49.445
28 23 Kempelis, Filips LAT LAMSF Honda 1:55.806 11 0:08.218 0:02.226 11 48.495

MX1 – Qualifying Race Classification
Pos Nr Rider Nat. Fed. Bike Time laps Diff. First Diff. Prev. Bestlaptime in lap Speed

1 25 Desalle, Clement BEL FMB Honda 23:58.496 12 0:00.000 0:00.000 1:50.547 5 50.802
2 5 Nagl, Maximilian GER DMSB KTM 24:02.009 12 0:03.513 0:03.513 1:50.145 5 50.987
3 19 Philippaerts, David ITA FMI Yamaha 24:19.498 12 0:21.002 0:17.489 1:50.831 8 50.672
4 6 Coppins, Joshua NZL MNZ Yamaha 24:22.256 12 0:23.760 0:02.758 1:52.140 5 50.08
5 20 Aranda, Gregory FRA FFM Kawasaki 24:23.499 12 0:25.003 0:01.243 1:52.009 10 50.139
6 211 Mackenzie, Billy GBR ACU Honda 24:25.318 12 0:26.822 0:01.819 1:51.352 3 50.435
7 222 Cairoli, Antonio ITA FMI Yamaha 24:25.753 12 0:27.257 0:00.435 1:51.432 3 50.398
8 101 Pichon, Mickael FRA FFM Honda 24:27.636 12 0:29.140 0:01.883 1:52.082 3 50.106
9 8 Leok, Tanel EST EMF Yamaha 24:28.176 12 0:29.680 0:00.540 1:52.110 3 50.094
10 9 de Dycker, Ken BEL FMB Suzuki 24:35.710 12 0:37.214 0:07.534 1:51.157 4 50.523
11 46 Dougan, Jason GBR ACU CCM 24:36.551 12 0:38.055 0:00.841 1:52.608 3 49.872
12 15 Bill, Julien SUI FMS Aprilia 24:38.351 12 0:39.855 0:01.800 1:52.878 4 49.753
13 111 Leok, Aigar EST EMF TM 24:38.726 12 0:40.230 0:00.375 1:52.044 8 50.123
14 17 Swanepoel, Gareth RSA MSA Kawasaki 24:40.232 12 0:41.736 0:01.506 1:51.907 8 50.185
15 98 Richier, Florent FRA FFM Kawasaki 24:49.082 12 0:50.586 0:08.850 1:51.796 3 50.234
16 12 Vuillemin, David FRA FFM Kawasaki 24:53.105 12 0:54.609 0:04.023 1:52.028 7 50.13
17 115 Campano, Carlos ESP RFME Yamaha 24:54.603 12 0:56.107 0:01.498 1:54.057 8 49.239
18 121 Mackenzie, Bryan GBR ACU Honda 25:07.214 12 1:08.718 0:12.611 1:54.379 5 49.1
19 37 Krestinov, Gert EST EMF KTM 25:08.221 12 1:09.725 0:01.007 1:54.235 7 49.162
20 32 Priem, Manuel BEL FMB Aprilia 25:12.168 12 1:13.672 0:03.947 1:53.976 5 49.274
21 77 Terreblanche, Shannon RSA MSA Kawasaki 25:22.727 12 1:24.231 0:10.559 1:54.019 7 49.255
22 56 van Vijfeijken, Rob NED KNMV Yamaha 25:23.979 12 1:25.483 0:01.252 1:55.300 5 48.708
23 74 Steinbergs, Ivo LAT LAMSF Honda 25:46.431 12 1:47.935 0:22.452 1:56.120 11 48.364
24 41 Beaudouin, Raphael FRA FFM Honda 25:48.571 12 1:50.075 0:02.140 1:56.014 8 48.408
25 45 Leonce, Loic FRA FFM Aprilia 25:02.200 11 1 lap(s) 1 lap(s) 1:54.793 2 48.923
26 23 Kempelis, Filips LAT LAMSF Honda 25:03.217 11 1 lap(s) 0:01.017 1:58.646 7 47.334
27 24 Church, Tom GBR ACU CCM 17:34.120 8 4 lap(s) 3 lap(s) 1:53.911 6 49.302
28 39 Sallefranque, Josse FRA FFM Honda 14:46.172 6 6 lap(s) 2 lap(s) 1:54.643 5 48.987

MX2 – Free Practice Classification
Pos Nr Rider Nat. Fed. Bike Bestlaptime in lap Diff. First Diff. Prev. Tot. Laps Speed
1 183 Frossard, Steven FRA FFM Kawasaki 1:48.384 13 0:00.000 0:00.000 14 51.816
2 25 Musquin, Marvin FRA FFM KTM 1:48.498 8 0:00.114 0:00.114 16 51.761

3 89 van Horebeek, Jeremy BEL FMB KTM 1:48.506 10 0:00.122 0:00.008 11 51.758
4 22 Boissiere, Anthony FRA FFM KTM 1:48.693 11 0:00.309 0:00.187 13 51.668
5 3 Aubin, Nicolas FRA FFM Yamaha 1:48.883 7 0:00.499 0:00.190 12 51.578
6 21 Paulin, Gautier FRA MCM Kawasaki 1:48.931 11 0:00.547 0:00.048 12 51.556

7 13 Monni, Manuel ITA FMI Yamaha 1:48.979 15 0:00.595 0:00.048 16 51.533
8 121 Boog, Xavier FRA FFM Suzuki 1:49.139 14 0:00.755 0:00.160 16 51.457
9 5 Goncalves, Rui POR FMP KTM 1:49.227 12 0:00.843 0:00.088 15 51.416
10 94 Roczen, Ken GER DMSB Suzuki 1:49.355 10 0:00.971 0:00.128 17 51.356
11 7 Sword, Stephen GBR ACU KTM 1:49.903 9 0:01.519 0:00.548 11 51.1
12 56 Bobryshev, Evgeny RUS MFR Yamaha 1:50.088 9 0:01.704 0:00.185 13 51.014
13 33 Soubeyras, Cedric FRA FFM Honda 1:50.158 13 0:01.774 0:00.070 15 50.981
14 519 Rombaut, Loic FRA FFM Kawasaki 1:50.268 10 0:01.884 0:00.110 14 50.93
15 37 Teillet, Valentin FRA FFM KTM 1:50.353 14 0:01.969 0:00.085 16 50.891

16 501 Lupino, Alessandro ITA FMI Yamaha 1:50.394 13 0:02.010 0:00.041 13 50.872
17 24 Butron Oliva, Jose Antonio ESP RFME Suzuki 1:50.552 6 0:02.168 0:00.158 12 50.8
18 202 Larrieu, Loic FRA FFM Yamaha 1:50.571 9 0:02.187 0:00.019 14 50.791
19 23 Tonus, Arnaud SUI FMS KTM 1:50.620 11 0:02.236 0:00.049 16 50.768
20 175 Larsen, Nikolai DEN DMU Suzuki 1:50.985 12 0:02.601 0:00.365 13 50.601
21 34 Roelants, Joel BEL FMB KTM 1:51.118 12 0:02.734 0:00.133 13 50.541
22 47 Leuret, Pascal FRA FFM Honda 1:51.223 10 0:02.839 0:00.105 12 50.493
23 75 Triest, Nick BEL FMB KTM 1:51.402 5 0:03.018 0:00.179 17 50.412
24 335 Verbruggen, Dennis BEL FMB Honda 1:51.410 14 0:03.026 0:00.008 14 50.408
25 45 Nicholls, Jake GBR ACU KTM 1:51.657 9 0:03.273 0:00.247 13 50.297
26 30 Klein Kromhof, Ceriel NED KNMV KTM 1:51.986 10 0:03.602 0:00.329 15 50.149
27 131 Michek, Martin CZE ACCR TM 1:52.018 10 0:03.634 0:00.032 12 50.135
28 44 Kojima, Yohei JPN MFJ Suzuki 1:52.091 11 0:03.707 0:00.073 14 50.102
29 68 Tixier, Jordi FRA FFM Kawasaki 1:52.178 15 0:03.794 0:00.087 16 50.063
30 17 Clermont, Jason FRA FFM Honda 1:52.205 6 0:03.821 0:00.027 14 50.051
31 64 Vongsana, Khounsith FRA FFM Honda 1:52.252 9 0:03.868 0:00.047 10 50.03

32 51 Smitka, Petr CZE ACCR KTM 1:52.299 8 0:03.915 0:00.047 14 50.009
33 119 Pocock, Mel GBR ACU Yamaha 1:52.880 10 0:04.496 0:00.581 11 49.752
34 14 Philippaerts, Deny ITA FMI Yamaha 1:53.676 8 0:05.292 0:00.796 13 49.404
35 39 Guarneri, Davide ITA FMI Yamaha 1:54.143 6 0:05.759 0:00.467 11 49.201
36 95 Justs, Augusts LAT LAMSF KTM 1:54.255 14 0:05.871 0:00.112 15 49.153
37 153 Maddii, Marco ITA FMI Suzuki 1:56.045 12 0:07.661 0:01.790 12 48.395

MX2 – Pre-Qualifying Practice Classification
Pos Nr Rider Nat. Fed. Bike Bestlaptime in lap Diff. First Diff. Prev. Tot. Laps Speed
1 25 Musquin, Marvin FRA FFM KTM 1:47.554 7 0:00.000 0:00.000 13 52.216
2 21 Paulin, Gautier FRA MCM Kawasaki 1:48.089 10 0:00.535 0:00.535 15 51.957

3 39 Guarneri, Davide ITA FMI Yamaha 1:48.274 11 0:00.720 0:00.185 12 51.868
4 3 Aubin, Nicolas FRA FFM Yamaha 1:48.400 10 0:00.846 0:00.126 11 51.808
5 183 Frossard, Steven FRA FFM Kawasaki 1:48.728 10 0:01.174 0:00.328 15 51.652
6 37 Teillet, Valentin FRA FFM KTM 1:49.122 12 0:01.568 0:00.394 15 51.465

7 5 Goncalves, Rui POR FMP KTM 1:49.230 11 0:01.676 0:00.108 15 51.414
8 22 Boissiere, Anthony FRA FFM KTM 1:49.260 13 0:01.706 0:00.030 17 51.4
9 121 Boog, Xavier FRA FFM Suzuki 1:49.271 15 0:01.717 0:00.011 18 51.395

10 94 Roczen, Ken GER DMSB Suzuki 1:49.559 11 0:02.005 0:00.288 15 51.26
11 89 van Horebeek, Jeremy BEL FMB KTM 1:49.718 11 0:02.164 0:00.159 15 51.186
12 13 Monni, Manuel ITA FMI Yamaha 1:50.008 16 0:02.454 0:00.290 16 51.051
13 33 Soubeyras, Cedric FRA FFM Honda 1:50.156 7 0:02.602 0:00.148 12 50.982
14 23 Tonus, Arnaud SUI FMS KTM 1:50.359 16 0:02.805 0:00.203 16 50.888
15 64 Vongsana, Khounsith FRA FFM Honda 1:50.677 6 0:03.123 0:00.318 11 50.742
16 7 Sword, Stephen GBR ACU KTM 1:50.722 7 0:03.168 0:00.045 13 50.722
17 202 Larrieu, Loic FRA FFM Yamaha 1:50.724 8 0:03.170 0:00.002 13 50.721
18 519 Rombaut, Loic FRA FFM Kawasaki 1:51.010 12 0:03.456 0:00.286 17 50.59

19 175 Larsen, Nikolai DEN DMU Suzuki 1:51.152 14 0:03.598 0:00.142 14 50.525
20 501 Lupino, Alessandro ITA FMI Yamaha 1:51.220 11 0:03.666 0:00.068 12 50.495
21 34 Roelants, Joel BEL FMB KTM 1:51.344 9 0:03.790 0:00.124 13 50.438
22 335 Verbruggen, Dennis BEL FMB Honda 1:51.622 7 0:04.068 0:00.278 15 50.313
23 45 Nicholls, Jake GBR ACU KTM 1:51.689 9 0:04.135 0:00.067 15 50.282
24 56 Bobryshev, Evgeny RUS MFR Yamaha 1:51.789 10 0:04.235 0:00.100 13 50.238
25 24 Butron Oliva, Jose Antonio ESP RFME Suzuki 1:51.815 11 0:04.261 0:00.026 11 50.226
26 44 Kojima, Yohei JPN MFJ Suzuki 1:51.821 17 0:04.267 0:00.006 18 50.223
27 75 Triest, Nick BEL FMB KTM 1:52.063 15 0:04.509 0:00.242 18 50.115
28 131 Michek, Martin CZE ACCR TM 1:52.074 10 0:04.520 0:00.011 15 50.11
29 47 Leuret, Pascal FRA FFM Honda 1:52.393 7 0:04.839 0:00.319 14 49.968
30 30 Klein Kromhof, Ceriel NED KNMV KTM 1:52.653 13 0:05.099 0:00.260 15 49.852
31 68 Tixier, Jordi FRA FFM Kawasaki 1:52.666 15 0:05.112 0:00.013 16 49.846
32 17 Clermont, Jason FRA FFM Honda 1:52.795 9 0:05.241 0:00.129 12 49.789
33 51 Smitka, Petr CZE ACCR KTM 1:52.886 7 0:05.332 0:00.091 13 49.749
34 119 Pocock, Mel GBR ACU Yamaha 1:53.183 5 0:05.629 0:00.297 12 49.619
35 14 Philippaerts, Deny ITA FMI Yamaha 1:54.815 11 0:07.261 0:01.632 14 48.913
36 153 Maddii, Marco ITA FMI Suzuki 1:54.871 11 0:07.317 0:00.056 13 48.89
37 95 Justs, Augusts LAT LAMSF KTM 1:55.524 13 0:07.970 0:00.653 16 48.613

MX2 – Qualifying Race Classification
Pos Nr Rider Nat. Fed. Bike Time laps Diff. First Diff. Prev. Bestlaptime in lap Speed

1 25 Musquin, Marvin FRA FFM KTM 24:15.364 12 0:00.000 0:00.000 1:51.190 4 50.508
2 183 Frossard, Steven FRA FFM Kawasaki 24:20.204 12 0:04.840 0:04.840 1:51.234 8 50.488
3 22 Boissiere, Anthony FRA FFM KTM 24:24.128 12 0:08.764 0:03.924 1:52.089 5 50.103

4 94 Roczen, Ken GER DMSB Suzuki 24:33.030 12 0:17.666 0:08.902 1:52.654 3 49.852
5 21 Paulin, Gautier FRA MCM Kawasaki 24:44.190 12 0:28.826 0:11.160 1:52.432 6 49.95
6 13 Monni, Manuel ITA FMI Yamaha 24:51.666 12 0:36.302 0:07.476 1:53.409 6 49.52
7 121 Boog, Xavier FRA FFM Suzuki 24:55.268 12 0:39.904 0:03.602 1:53.180 3 49.62
8 23 Tonus, Arnaud SUI FMS KTM 24:56.940 12 0:41.576 0:01.672 1:53.310 4 49.563
9 202 Larrieu, Loic FRA FFM Yamaha 25:03.622 12 0:48.258 0:06.682 1:54.157 10 49.195
10 7 Sword, Stephen GBR ACU KTM 25:06.520 12 0:51.156 0:02.898 1:54.314 7 49.128
11 56 Bobryshev, Evgeny RUS MFR Yamaha 25:08.353 12 0:52.989 0:01.833 1:55.310 3 48.703
12 37 Teillet, Valentin FRA FFM KTM 25:09.354 12 0:53.990 0:01.001 1:54.369 7 49.104
13 39 Guarneri, Davide ITA FMI Yamaha 25:16.950 12 1:01.586 0:07.596 1:52.698 3 49.832
14 33 Soubeyras, Cedric FRA FFM Honda 25:18.121 12 1:02.757 0:01.171 1:54.939 9 48.861
15 89 van Horebeek, Jeremy BEL FMB KTM 25:18.872 12 1:03.508 0:00.751 1:53.644 3 49.417
16 3 Aubin, Nicolas FRA FFM Yamaha 25:20.613 12 1:05.249 0:01.741 1:55.375 7 48.676
17 34 Roelants, Joel BEL FMB KTM 25:21.371 12 1:06.007 0:00.758 1:55.498 5 48.624
18 45 Nicholls, Jake GBR ACU KTM 25:22.912 12 1:07.548 0:01.541 1:54.529 5 49.036
19 519 Rombaut, Loic FRA FFM Kawasaki 25:23.822 12 1:08.458 0:00.910 1:55.999 3 48.414
20 64 Vongsana, Khounsith FRA FFM Honda 25:25.269 12 1:09.905 0:01.447 1:55.422 3 48.656

21 44 Kojima, Yohei JPN MFJ Suzuki 25:27.295 12 1:11.931 0:02.026 1:55.629 4 48.569
22 5 Goncalves, Rui POR FMP KTM 25:28.558 12 1:13.194 0:01.263 1:53.617 8 49.429
23 119 Pocock, Mel GBR ACU Yamaha 25:33.965 12 1:18.601 0:05.407 1:55.459 10 48.641
24 75 Triest, Nick BEL FMB KTM 25:36.247 12 1:20.883 0:02.282 1:56.213 3 48.325
25 335 Verbruggen, Dennis BEL FMB Honda 25:40.644 12 1:25.280 0:04.397 1:56.569 8 48.177
26 51 Smitka, Petr CZE ACCR KTM 25:42.902 12 1:27.538 0:02.258 1:56.995 5 48.002
27 17 Clermont, Jason FRA FFM Honda 25:44.346 12 1:28.982 0:01.444 1:57.127 8 47.948
28 131 Michek, Martin CZE ACCR TM 25:45.018 12 1:29.654 0:00.672 1:55.878 9 48.465
29 501 Lupino, Alessandro ITA FMI Yamaha 25:48.873 12 1:33.509 0:03.855 1:57.010 9 47.996
30 175 Larsen, Nikolai DEN DMU Suzuki 25:50.725 12 1:35.361 0:01.852 1:55.641 8 48.564
31 30 Klein Kromhof, Ceriel NED KNMV KTM 25:51.362 12 1:35.998 0:00.637 1:55.597 7 48.583
32 153 Maddii, Marco ITA FMI Suzuki 26:00.118 12 1:44.754 0:08.756 1:58.479 5 47.401
33 95 Justs, Augusts LAT LAMSF KTM 26:02.351 11 1 lap(s) 1 lap(s) 1:57.984 3 47.6
34 14 Philippaerts, Deny ITA FMI Yamaha 14:19.385 6 6 lap(s) 5 lap(s) 1:57.754 3 47.693
35 68 Tixier, Jordi FRA FFM Kawasaki 11:59.143 5 7 lap(s) 1 lap(s) 1:57.004 3 47.998
36 47 Leuret, Pascal FRA FFM Honda 8:15.156 3 9 lap(s) 2 lap(s) 1:57.497 3 47.797

WMX – Free Practice Classification
Pos Nr Rider Nat. Fed. Bike Bestlaptime in lap Diff. First Diff. Prev. Tot. Laps Speed
1 114 Lancelot, Livia FRA FFM Kawasaki 1:59.679 10 0:00.000 0:00.000 10 46.926

2 4 Papenmeier, Larissa GER DMSB Suzuki 2:01.299 10 0:01.620 0:01.620 11 46.299
3 103 Franke, Maria GER DMSB Kawasaki 2:02.646 9 0:02.967 0:01.347 11 45.79
4 110 Laier, Stephanie GER DMSB KTM 2:04.144 5 0:04.465 0:01.498 11 45.238
5 89 De Winter, Elien BEL FMB Honda 2:05.427 10 0:05.748 0:01.283 12 44.775
6 10 De Mol, Marielle NED KNMV Yamaha 2:07.085 8 0:07.406 0:01.658 10 44.191
7 5 Mann, Elin SWE SVEMO KTM 2:08.335 9 0:08.656 0:01.250 10 43.76
8 44 Kane, Nathalie IRL MCUI Suzuki 2:08.492 6 0:08.813 0:00.157 9 43.707
9 88 Fontanesi, Chiara ITA FMI Yamaha 2:08.524 6 0:08.845 0:00.032 7 43.696
10 90 Wagemans, Brenda BEL FMB KTM 2:10.020 10 0:10.341 0:01.496 12 43.193
11 11 van Wordragen, Nicky NED KNMV KTM 2:10.064 9 0:10.385 0:00.044 12 43.179
12 7 Veenstra, Marianne NED KNMV Suzuki 2:10.919 5 0:11.240 0:00.855 11 42.897
13 111 Borchers, Anne GER DMSB Suzuki 2:12.937 8 0:13.258 0:02.018 10 42.246
14 275 Romlin, Marie SWE SML KTM 2:13.677 8 0:13.998 0:00.740 11 42.012
15 116 Nocera, Francesca ITA FMI KTM 2:15.792 5 0:16.113 0:02.115 9 41.357
16 101 Seidenberg, Jenny GER DMSB KTM 2:15.999 7 0:16.320 0:00.207 9 41.294
17 41 Lemaitre, Justine FRA FFM Honda 2:16.182 7 0:16.503 0:00.183 8 41.239
18 36 de Barquin, Morane BEL MUL KTM 2:17.739 3 0:18.060 0:01.557 9 40.773
19 23 Segura Pereira, Carmen ESP RFME KTM 2:17.759 7 0:18.080 0:00.020 10 40.767
20 46 van der Wekken, Britt NED KNMV Honda 2:17.779 8 0:18.100 0:00.020 10 40.761
21 43 Stefans, Signy ISL MSI Kawasaki 2:18.502 5 0:18.823 0:00.723 9 40.548
22 22 Petterson, Sara SWE SVEMO KTM 2:18.599 6 0:18.920 0:00.097 9 40.52
23 52 Charroux, Justine FRA FFM Yamaha 2:19.435 7 0:19.756 0:00.836 7 40.277
24 222 Simonet, Annabelle FRA FFM Yamaha 2:19.750 7 0:20.071 0:00.315 12 40.186
25 27 Dunlop, Alix GBR ACU CCM 2:20.189 5 0:20.510 0:00.439 6 40.06
26 24 Paull, Sophia GBR ACU Honda 2:20.900 3 0:21.221 0:00.711 8 39.858
27 86 Verkade, Shirley NED KNMV KTM 2:21.170 6 0:21.491 0:00.270 9 39.782
28 100 Fransoo, Natascha GER DMSB TM 2:21.335 3 0:21.656 0:00.165 4 39.735
29 77 Johansson, Sofia SWE SVEMO Suzuki 2:21.389 8 0:21.710 0:00.054 10 39.72
30 61 Klink, Nina NED KNMV Kawasaki 2:21.692 6 0:22.013 0:00.303 9 39.635
31 19 Lankova, Barbora CZE ACCR Kawasaki 2:23.730 6 0:24.051 0:02.038 10 39.073
32 15 Peyssard, Julie FRA FFM Kawasaki 2:24.293 8 0:24.614 0:00.563 10 38.921
33 48 Sbrana, Alessandra ITA FMI Honda 2:24.338 7 0:24.659 0:00.045 9 38.909
34 215 Jussiaume, Lucie FRA FFM Kawasaki 2:26.366 9 0:26.687 0:02.028 10 38.37
35 75 Van De Velde, Jessica BEL FMB Yamaha 2:26.444 6 0:26.765 0:00.078 10 38.349
36 29 Magallon Gubau, Carla ESP RFME Yamaha 2:27.267 5 0:27.588 0:00.823 9 38.135
37 102 Pillet, Florence SUI FMS KTM 2:27.448 7 0:27.769 0:00.181 10 38.088
38 122 Hilario, Vanessa POR FMP Yamaha 2:27.556 8 0:27.877 0:00.108 8 38.06
39 18 De Palleja, Nelia ESP RFME KTM 2:28.790 5 0:29.111 0:01.234 7 37.744
40 115 Guryeva, Ekaterina RUS MFR Kawasaki 2:30.802 6 0:31.123 0:02.012 9 37.241

WMX – Time Practice Classification
Pos Nr Rider Nat. Fed. Bike Bestlaptime in lap Diff. First Diff. Prev. Tot. Laps Speed

1 114 Lancelot, Livia FRA FFM Kawasaki 1:58.247 10 0:00.000 0:00.000 11 47.494
2 110 Laier, Stephanie GER DMSB KTM 1:58.559 7 0:00.312 0:00.312 10 47.369
3 4 Papenmeier, Larissa GER DMSB Suzuki 2:00.002 2 0:01.755 0:01.443 11 46.799
4 103 Franke, Maria GER DMSB Kawasaki 2:01.991 7 0:03.744 0:01.989 11 46.036
5 5 Mann, Elin SWE SVEMO KTM 2:02.717 1 0:04.470 0:00.726 1 45.764
6 44 Kane, Nathalie IRL MCUI Suzuki 2:04.550 7 0:06.303 0:01.833 11 45.09
7 89 De Winter, Elien BEL FMB Honda 2:05.030 10 0:06.783 0:00.480 12 44.917
8 88 Fontanesi, Chiara ITA FMI Yamaha 2:05.681 9 0:07.434 0:00.651 9 44.685
9 7 Veenstra, Marianne NED KNMV Suzuki 2:07.208 4 0:08.961 0:01.527 10 44.148
10 10 De Mol, Marielle NED KNMV Yamaha 2:07.405 5 0:09.158 0:00.197 9 44.08
11 90 Wagemans, Brenda BEL FMB KTM 2:08.153 11 0:09.906 0:00.748 11 43.823
12 11 van Wordragen, Nicky NED KNMV KTM 2:08.378 4 0:10.131 0:00.225 9 43.746
13 275 Romlin, Marie SWE SML KTM 2:08.952 5 0:10.705 0:00.574 9 43.551
14 111 Borchers, Anne GER DMSB Suzuki 2:09.706 10 0:11.459 0:00.754 10 43.298
15 23 Segura Pereira, Carmen ESP RFME KTM 2:09.796 6 0:11.549 0:00.090 11 43.268
16 52 Charroux, Justine FRA FFM Yamaha 2:10.199 7 0:11.952 0:00.403 9 43.134
17 46 van der Wekken, Britt NED KNMV Honda 2:10.445 3 0:12.198 0:00.246 8 43.053
18 222 Simonet, Annabelle FRA FFM Yamaha 2:10.708 3 0:12.461 0:00.263 10 42.966
19 27 Dunlop, Alix GBR ACU CCM 2:11.021 5 0:12.774 0:00.313 9 42.863
20 36 de Barquin, Morane BEL MUL KTM 2:11.160 5 0:12.913 0:00.139 9 42.818
21 22 Petterson, Sara SWE SVEMO KTM 2:12.166 5 0:13.919 0:01.006 8 42.492
22 101 Seidenberg, Jenny GER DMSB KTM 2:12.371 7 0:14.124 0:00.205 8 42.426
23 116 Nocera, Francesca ITA FMI KTM 2:12.935 6 0:14.688 0:00.564 10 42.246
24 24 Paull, Sophia GBR ACU Honda 2:13.569 7 0:15.322 0:00.634 7 42.046
25 86 Verkade, Shirley NED KNMV KTM 2:14.327 8 0:16.080 0:00.758 9 41.808
26 43 Stefans, Signy ISL MSI Kawasaki 2:14.380 8 0:16.133 0:00.053 8 41.792
27 77 Johansson, Sofia SWE SVEMO Suzuki 2:15.765 12 0:17.518 0:01.385 12 41.366
28 61 Klink, Nina NED KNMV Kawasaki 2:17.398 7 0:19.151 0:01.633 8 40.874
29 102 Pillet, Florence SUI FMS KTM 2:17.514 4 0:19.267 0:00.116 9 40.839
30 19 Lankova, Barbora CZE ACCR Kawasaki 2:17.837 4 0:19.590 0:00.323 9 40.744
31 215 Jussiaume, Lucie FRA FFM Kawasaki 2:19.930 7 0:21.683 0:02.093 10 40.134
32 15 Peyssard, Julie FRA FFM Kawasaki 2:21.715 1 0:23.468 0:01.785 7 39.629
33 122 Hilario, Vanessa POR FMP Yamaha 2:22.860 7 0:24.613 0:01.145 9 39.311
34 115 Guryeva, Ekaterina RUS MFR Kawasaki 2:23.043 8 0:24.796 0:00.183 9 39.261
35 48 Sbrana, Alessandra ITA FMI Honda 2:23.460 8 0:25.213 0:00.417 10 39.147
36 29 Magallon Gubau, Carla ESP RFME Yamaha 2:24.220 9 0:25.973 0:00.760 11 38.941
37 41 Lemaitre, Justine FRA FFM Honda 2:24.268 1 0:26.021 0:00.048 4 38.928
38 18 De Palleja, Nelia ESP RFME KTM 2:25.258 3 0:27.011 0:00.990 6 38.662
39 75 Van De Velde, Jessica BEL FMB Yamaha 2:25.847 8 0:27.600 0:00.589 10 38.506

youthstreammxsponso09

A voir aussi :

Le commentaires sont fermés.